Time;durP1;ratioP1;P1;durP2;ratioP2;P2;SDS_P1;SDS_P2;PMS_P1;PMS_P2;Temp;Humidity;BMP_temperature;BMP_pressure;BME280_temperature;BME280_humidity;BME280_pressure;Samples;Min_cycle;Max_cycle;Signal;HPM_P1;HPM_P2
2023/12/28 00:00:28;;;;;;;1.63;1.33;;;12.30;46.60;;;;;;5086487;28;20190;-73
2023/12/28 00:02:53;;;;;;;1.37;1.20;;;12.20;46.80;;;;;;5086507;28;20191;-74
2023/12/28 00:05:19;;;;;;;1.27;1.03;;;12.00;47.00;;;;;;5087765;28;20315;-73
2023/12/28 00:07:44;;;;;;;6.33;1.30;;;12.00;47.70;;;;;;5086561;28;20262;-73
2023/12/28 00:10:10;;;;;;;1.20;1.10;;;12.00;47.10;;;;;;5086594;28;20273;-73
2023/12/28 00:12:39;;;;;;;1.37;0.90;;;12.00;47.60;;;;;;5086348;28;20557;-72
2023/12/28 00:15:05;;;;;;;1.23;1.13;;;11.90;48.10;;;;;;5087952;28;20423;-75
2023/12/28 00:17:30;;;;;;;1.43;1.00;;;11.80;48.20;;;;;;5088065;28;20432;-75
2023/12/28 00:19:56;;;;;;;1.90;1.10;;;11.80;48.00;;;;;;5086559;28;20991;-74
2023/12/28 00:22:22;;;;;;;1.10;0.87;;;11.70;48.10;;;;;;5086799;28;20275;-74
2023/12/28 00:24:47;;;;;;;1.80;1.00;;;11.60;48.30;;;;;;5086734;28;20509;-74
2023/12/28 00:27:13;;;;;;;1.67;1.30;;;11.40;49.10;;;;;;5086367;28;20642;-74
2023/12/28 00:29:39;;;;;;;1.90;1.20;;;11.30;49.30;;;;;;5088072;28;20184;-73
2023/12/28 00:32:07;;;;;;;1.33;1.10;;;11.50;48.30;;;;;;5087652;28;20571;-73
2023/12/28 00:34:33;;;;;;;1.90;1.33;;;11.60;48.10;;;;;;5069276;28;20181;-73
2023/12/28 00:36:59;;;;;;;3.43;1.50;;;11.60;48.20;;;;;;5087186;28;20441;-73
2023/12/28 00:39:24;;;;;;;2.60;1.47;;;11.70;48.50;;;;;;5069080;28;20191;-73
2023/12/28 00:41:50;;;;;;;1.63;1.20;;;11.80;48.20;;;;;;5086074;28;20729;-74
2023/12/28 00:44:15;;;;;;;1.70;1.20;;;11.70;49.10;;;;;;5087513;28;20188;-73
2023/12/28 00:46:41;;;;;;;1.73;1.30;;;11.70;48.80;;;;;;5087195;28;20208;-73
2023/12/28 00:49:08;;;;;;;2.07;1.17;;;11.70;48.80;;;;;;5085702;28;20207;-73
2023/12/28 00:51:33;;;;;;;1.53;1.40;;;11.70;48.80;;;;;;5087519;28;20220;-72
2023/12/28 00:53:59;;;;;;;1.37;1.00;;;11.70;49.00;;;;;;5087911;28;20417;-73
2023/12/28 00:56:25;;;;;;;3.17;1.70;;;11.80;48.70;;;;;;5086294;28;20689;-72
2023/12/28 00:58:50;;;;;;;2.27;1.00;;;11.70;49.50;;;;;;5087879;28;20183;-73
2023/12/28 01:01:16;;;;;;;2.70;1.43;;;11.70;49.00;;;;;;5086274;28;20193;-73
2023/12/28 01:03:42;;;;;;;1.37;1.27;;;11.80;48.40;;;;;;5087578;28;20208;-73
2023/12/28 01:06:08;;;;;;;1.40;1.30;;;11.80;48.60;;;;;;5087226;28;20487;-73
2023/12/28 01:08:36;;;;;;;1.20;1.00;;;11.70;49.40;;;;;;5086002;28;20246;-73
2023/12/28 01:11:02;;;;;;;1.40;1.20;;;11.70;49.70;;;;;;5087083;28;20666;-73
2023/12/28 01:13:28;;;;;;;5.57;1.63;;;11.60;50.30;;;;;;5087026;28;20479;-73
2023/12/28 01:15:54;;;;;;;1.20;1.00;;;11.70;49.40;;;;;;5085246;28;20437;-73
2023/12/28 01:18:20;;;;;;;2.27;1.53;;;11.70;49.70;;;;;;5085324;28;20440;-73
2023/12/28 01:20:46;;;;;;;1.70;1.30;;;11.70;49.80;;;;;;5086733;28;20535;-74
2023/12/28 01:23:12;;;;;;;1.97;1.47;;;11.60;49.90;;;;;;5086816;28;20663;-74
2023/12/28 01:25:37;;;;;;;1.60;1.30;;;11.60;50.00;;;;;;5068949;28;20470;-74
2023/12/28 01:28:04;;;;;;;1.80;1.50;;;11.60;50.00;;;;;;5085315;28;20426;-72
2023/12/28 01:30:30;;;;;;;1.30;1.20;;;11.70;49.60;;;;;;5086580;28;20215;-73
2023/12/28 01:32:55;;;;;;;1.67;1.20;;;11.60;49.90;;;;;;5085449;28;20478;-73
2023/12/28 01:35:21;;;;;;;1.20;1.10;;;11.70;49.50;;;;;;5086400;28;20885;-74
2023/12/28 01:37:46;;;;;;;1.30;1.20;;;11.70;49.90;;;;;;5085478;28;20186;-73
2023/12/28 01:40:12;;;;;;;3.30;1.17;;;11.70;49.90;;;;;;5086819;28;20663;-73
2023/12/28 01:42:37;;;;;;;2.07;1.30;;;11.70;49.90;;;;;;5085391;28;20195;-74
2023/12/28 01:45:04;;;;;;;1.63;1.43;;;11.80;49.40;;;;;;5086742;28;20173;-73
2023/12/28 01:47:30;;;;;;;1.43;1.20;;;11.70;49.70;;;;;;5085311;28;20595;-74
2023/12/28 01:49:56;;;;;;;2.60;1.23;;;11.80;49.80;;;;;;5087112;28;20535;-74
2023/12/28 01:52:22;;;;;;;3.03;1.00;;;11.70;50.70;;;;;;5090270;28;20914;-73
2023/12/28 01:54:49;;;;;;;3.50;1.40;;;11.50;50.60;;;;;;5090101;28;20439;-73
2023/12/28 01:57:15;;;;;;;2.23;1.53;;;11.70;50.00;;;;;;5088887;28;20207;-74
2023/12/28 01:59:41;;;;;;;1.20;1.10;;;11.60;50.70;;;;;;5089813;28;20408;-73
2023/12/28 02:02:07;;;;;;;1.27;1.13;;;11.60;50.30;;;;;;5090468;28;20444;-73
2023/12/28 02:04:33;;;;;;;2.27;1.50;;;11.60;50.50;;;;;;5089388;28;20486;-73
2023/12/28 02:07:01;;;;;;;1.30;0.97;;;11.60;50.30;;;;;;5071449;28;20223;-74
2023/12/28 02:09:27;;;;;;;1.57;1.10;;;11.50;50.10;;;;;;5089846;28;20441;-74
2023/12/28 02:11:54;;;;;;;1.10;0.83;;;11.50;50.20;;;;;;5090037;28;20420;-74
2023/12/28 02:14:21;;;;;;;1.50;1.00;;;11.40;51.00;;;;;;5088153;28;21118;-74
2023/12/28 02:16:54;;;;;;;1.70;1.33;;;11.40;50.80;;;;;;5088273;28;20453;-73
2023/12/28 02:19:22;;;;;;;3.73;2.37;;;11.50;50.90;;;;;;5089691;28;20492;-73
2023/12/28 02:21:49;;;;;;;1.50;1.27;;;11.60;50.20;;;;;;5089575;28;20464;-73
2023/12/28 02:24:15;;;;;;;1.70;1.17;;;11.60;50.20;;;;;;5071527;28;20472;-73
2023/12/28 02:26:40;;;;;;;1.40;1.30;;;11.60;50.50;;;;;;5071159;28;20470;-73
2023/12/28 02:29:06;;;;;;;1.60;1.20;;;11.50;50.70;;;;;;5087680;28;20184;-73
2023/12/28 02:31:39;;;;;;;1.43;1.33;;;11.40;51.10;;;;;;5087673;28;20274;-73
2023/12/28 02:34:10;;;;;;;2.40;1.20;;;11.30;51.10;;;;;;5087919;28;20183;-73
2023/12/28 02:36:37;;;;;;;8.00;2.83;;;11.50;50.70;;;;;;5089404;28;20467;-73
2023/12/28 02:39:05;;;;;;;1.60;1.50;;;11.70;50.20;;;;;;5089600;28;20425;-74
2023/12/28 02:41:31;;;;;;;2.50;1.30;;;11.70;50.30;;;;;;5089515;28;20463;-74
2023/12/28 02:43:56;;;;;;;3.30;1.43;;;11.70;50.10;;;;;;5088061;28;20420;-74
2023/12/28 02:46:22;;;;;;;1.60;1.50;;;11.60;50.00;;;;;;5070913;28;20485;-74
2023/12/28 02:48:49;;;;;;;1.70;1.40;;;11.70;50.80;;;;;;5088230;28;20185;-74
2023/12/28 02:51:16;;;;;;;2.83;2.07;;;11.60;50.60;;;;;;5089455;28;20230;-74
2023/12/28 02:53:41;;;;;;;1.57;1.47;;;11.50;51.40;;;;;;5088227;28;20536;-74
2023/12/28 02:56:07;;;;;;;3.10;1.90;;;11.50;51.40;;;;;;5070995;28;20545;-74
2023/12/28 02:58:33;;;;;;;4.30;1.47;;;11.30;51.70;;;;;;5071319;28;20958;-74
2023/12/28 03:00:59;;;;;;;1.40;1.10;;;11.30;51.10;;;;;;5089616;28;20179;-74
2023/12/28 03:03:24;;;;;;;1.67;1.47;;;11.40;51.10;;;;;;5054597;28;20431;-74
2023/12/28 03:05:50;;;;;;;1.63;1.30;;;11.50;51.60;;;;;;5087702;28;20269;-74
2023/12/28 03:08:15;;;;;;;1.70;1.30;;;11.40;51.50;;;;;;5089467;28;20182;-74
2023/12/28 03:10:42;;;;;;;1.97;1.30;;;11.40;51.40;;;;;;5089265;28;20175;-74
2023/12/28 03:13:07;;;;;;;2.20;1.27;;;11.40;51.60;;;;;;5089136;28;20190;-73
2023/12/28 03:15:33;;;;;;;2.17;1.17;;;11.40;51.30;;;;;;5088649;28;20432;-74
2023/12/28 03:17:59;;;;;;;1.27;1.17;;;11.40;51.20;;;;;;5087367;28;20235;-74
2023/12/28 03:20:24;;;;;;;1.53;1.10;;;11.30;51.80;;;;;;5088809;28;20177;-73
2023/12/28 03:22:50;;;;;;;1.50;1.40;;;11.20;52.20;;;;;;5088790;28;20208;-73
2023/12/28 03:25:15;;;;;;;6.30;1.70;;;11.20;52.10;;;;;;5087093;28;20213;-73
2023/12/28 03:27:41;;;;;;;2.60;1.63;;;11.20;52.40;;;;;;5088456;28;20557;-73
2023/12/28 03:30:07;;;;;;;3.17;1.20;;;11.20;51.90;;;;;;5086807;28;20197;-73
2023/12/28 03:32:33;;;;;;;1.30;1.03;;;11.30;51.60;;;;;;5088546;28;20657;-73
2023/12/28 03:34:58;;;;;;;1.50;1.40;;;11.20;51.80;;;;;;5086772;28;20441;-73
2023/12/28 03:37:25;;;;;;;1.60;1.37;;;11.30;51.60;;;;;;5088121;28;20218;-74
2023/12/28 03:39:50;;;;;;;1.20;1.10;;;11.20;51.90;;;;;;5088175;28;20421;-74
2023/12/28 03:42:16;;;;;;;1.97;1.40;;;11.20;52.60;;;;;;5088289;28;20903;-74
2023/12/28 03:44:42;;;;;;;1.90;1.30;;;11.10;52.50;;;;;;5087464;28;20187;-74
2023/12/28 03:47:07;;;;;;;1.20;1.03;;;11.30;52.00;;;;;;5088109;28;20689;-73
2023/12/28 03:49:33;;;;;;;1.60;1.20;;;11.30;52.00;;;;;;5086768;28;20179;-74
2023/12/28 03:51:59;;;;;;;1.57;1.47;;;11.20;52.10;;;;;;5087116;28;20187;-73
2023/12/28 03:54:24;;;;;;;4.03;1.30;;;11.20;52.60;;;;;;5088273;28;20582;-73
2023/12/28 03:56:50;;;;;;;1.90;1.17;;;11.40;51.70;;;;;;5088554;28;20223;-74
2023/12/28 03:59:15;;;;;;;1.63;1.20;;;11.40;51.90;;;;;;5087226;28;20244;-73
2023/12/28 04:01:41;;;;;;;1.90;1.20;;;11.40;51.50;;;;;;5088648;28;20194;-73
2023/12/28 04:04:06;;;;;;;1.40;1.10;;;11.40;51.90;;;;;;5070225;28;20191;-74
2023/12/28 04:06:32;;;;;;;1.83;1.40;;;11.40;51.50;;;;;;5087000;28;20219;-75
2023/12/28 04:08:58;;;;;;;1.10;1.00;;;11.50;51.10;;;;;;5088488;28;20275;-74
2023/12/28 04:11:23;;;;;;;2.00;1.10;;;11.60;51.20;;;;;;5087260;28;20280;-74
2023/12/28 04:13:50;;;;;;;1.60;1.07;;;11.60;51.40;;;;;;5088192;28;20559;-74
2023/12/28 04:16:16;;;;;;;1.97;1.30;;;11.60;51.50;;;;;;5087094;28;20214;-74
2023/12/28 04:18:42;;;;;;;1.80;1.20;;;11.50;51.30;;;;;;5069839;28;20515;-74
2023/12/28 04:21:09;;;;;;;1.93;1.30;;;11.50;51.10;;;;;;5088038;28;20422;-73
2023/12/28 04:23:39;;;;;;;1.13;0.97;;;11.60;51.10;;;;;;5087988;28;20423;-74
2023/12/28 04:26:05;;;;;;;1.20;0.90;;;11.60;51.10;;;;;;5086145;28;20467;-74
2023/12/28 04:28:31;;;;;;;2.77;1.30;;;11.50;51.50;;;;;;5086128;28;20427;-74
2023/12/28 04:30:56;;;;;;;2.27;1.20;;;11.60;51.30;;;;;;5087614;28;20426;-74
2023/12/28 04:33:22;;;;;;;3.90;1.13;;;11.60;51.20;;;;;;5069424;28;20190;-74
2023/12/28 04:35:48;;;;;;;1.17;1.00;;;11.60;51.70;;;;;;5087344;28;20235;-74
2023/12/28 04:38:14;;;;;;;1.17;1.03;;;11.50;51.80;;;;;;5085899;28;20211;-74
2023/12/28 04:40:41;;;;;;;1.40;1.30;;;11.50;52.20;;;;;;5086120;28;20420;-73
2023/12/28 04:43:06;;;;;;;1.53;1.10;;;11.50;52.40;;;;;;5085834;28;20487;-75
2023/12/28 04:45:32;;;;;;;1.47;1.27;;;11.50;52.10;;;;;;5087070;28;20450;-74
2023/12/28 04:47:58;;;;;;;2.90;1.20;;;11.40;52.10;;;;;;5069073;28;20196;-74
2023/12/28 04:50:23;;;;;;;1.53;1.00;;;11.50;52.20;;;;;;5087285;28;20183;-74
2023/12/28 04:52:49;;;;;;;1.00;0.90;;;11.70;52.40;;;;;;5069134;28;20195;-74
2023/12/28 04:55:14;;;;;;;1.20;1.03;;;11.70;52.50;;;;;;5087218;28;20180;-73
2023/12/28 04:57:43;;;;;;;3.83;1.10;;;11.60;52.90;;;;;;5086949;28;20247;-73
2023/12/28 05:00:09;;;;;;;1.60;1.20;;;11.50;53.20;;;;;;5087637;28;20185;-73
2023/12/28 05:02:34;;;;;;;2.80;0.97;;;11.60;53.10;;;;;;5087217;28;20470;-73
2023/12/28 05:05:00;;;;;;;1.87;1.30;;;11.50;53.30;;;;;;5085629;28;20427;-74
2023/12/28 05:07:26;;;;;;;1.40;1.03;;;11.60;53.20;;;;;;5085805;28;20222;-73
2023/12/28 05:09:52;;;;;;;1.40;1.03;;;11.50;53.70;;;;;;5087204;28;20836;-74
2023/12/28 05:12:17;;;;;;;1.00;0.70;;;11.50;54.10;;;;;;5085515;28;20283;-74
2023/12/28 05:14:43;;;;;;;0.90;0.80;;;11.50;54.70;;;;;;5085606;28;20176;-74
2023/12/28 05:17:08;;;;;;;1.20;1.03;;;11.50;54.80;;;;;;5086927;28;20286;-74
2023/12/28 05:19:34;;;;;;;1.70;1.00;;;11.50;55.30;;;;;;5087287;28;20283;-74
2023/12/28 05:22:03;;;;;;;2.37;1.53;;;11.60;55.30;;;;;;5086025;28;20192;-74
2023/12/28 05:24:29;;;;;;;1.00;0.90;;;11.60;55.90;;;;;;5088206;28;20187;-74
2023/12/28 05:26:54;;;;;;;1.03;0.90;;;11.60;56.60;;;;;;5091071;28;20542;-73
2023/12/28 05:29:20;;;;;;;1.57;1.10;;;11.60;57.50;;;;;;5056329;28;20662;-74
2023/12/28 05:31:46;;;;;;;1.70;1.33;;;11.70;57.60;;;;;;5091249;28;20195;-73
2023/12/28 05:34:11;;;;;;;1.20;0.80;;;11.70;58.10;;;;;;5091398;28;20211;-75
2023/12/28 05:36:37;;;;;;;1.17;0.97;;;11.70;58.80;;;;;;5090929;28;20285;-73
2023/12/28 05:39:02;;;;;;;2.60;1.53;;;11.70;59.30;;;;;;5072756;28;20189;-73
2023/12/28 05:41:28;;;;;;;1.40;0.90;;;11.70;59.80;;;;;;5091098;28;20191;-74
2023/12/28 05:43:54;;;;;;;1.57;0.87;;;11.70;60.50;;;;;;5091242;28;21036;-74
2023/12/28 05:46:20;;;;;;;0.90;0.70;;;11.60;60.80;;;;;;5072249;28;20215;-74
2023/12/28 05:48:45;;;;;;;3.77;1.00;;;11.70;61.10;;;;;;5072662;28;20733;-73
2023/12/28 05:51:11;;;;;;;4.30;0.90;;;11.70;61.60;;;;;;5072878;28;20657;-74
2023/12/28 05:53:36;;;;;;;1.93;0.90;;;11.70;62.30;;;;;;5089856;28;20185;-75
2023/12/28 05:56:03;;;;;;;1.47;0.80;;;11.70;62.60;;;;;;5091041;28;20231;-74
2023/12/28 05:58:29;;;;;;;1.27;1.10;;;11.70;63.40;;;;;;5090939;28;20271;-73
2023/12/28 06:00:55;;;;;;;1.30;0.90;;;11.70;64.50;;;;;;5090670;28;20531;-74
2023/12/28 06:03:21;;;;;;;1.17;0.90;;;11.50;64.90;;;;;;5090962;28;20279;-73
2023/12/28 06:05:46;;;;;;;1.17;0.73;;;11.50;65.60;;;;;;5089635;28;20265;-74
2023/12/28 06:08:12;;;;;;;1.43;0.90;;;11.60;67.30;;;;;;5089018;28;20565;-73
2023/12/28 06:10:37;;;;;;;1.20;1.10;;;11.60;67.40;;;;;;5088807;28;20187;-73
2023/12/28 06:13:03;;;;;;;1.50;0.83;;;11.60;68.50;;;;;;5090580;28;20187;-73
2023/12/28 06:15:29;;;;;;;2.53;0.97;;;11.60;69.60;;;;;;5088982;28;20211;-73
2023/12/28 06:17:54;;;;;;;1.63;0.73;;;11.60;72.30;;;;;;5088973;28;20631;-73
2023/12/28 06:20:20;;;;;;;1.47;0.93;;;11.60;74.10;;;;;;5088755;28;20193;-74
2023/12/28 06:22:48;;;;;;;3.77;1.30;;;11.60;74.80;;;;;;5088896;28;20238;-74
2023/12/28 06:25:14;;;;;;;0.93;0.83;;;11.70;75.80;;;;;;5089739;28;20182;-74
2023/12/28 06:27:39;;;;;;;2.60;0.70;;;11.70;77.10;;;;;;5088362;28;20549;-74
2023/12/28 06:30:06;;;;;;;1.70;1.23;;;11.70;78.50;;;;;;5089513;28;20207;-74
2023/12/28 06:32:31;;;;;;;3.10;1.00;;;11.60;79.80;;;;;;5089446;28;20179;-74
2023/12/28 06:34:57;;;;;;;2.50;1.00;;;11.60;80.50;;;;;;5087569;28;20436;-74
2023/12/28 06:37:22;;;;;;;0.80;0.77;;;11.60;82.70;;;;;;5089418;28;20196;-74
2023/12/28 06:39:48;;;;;;;1.43;0.80;;;11.60;83.30;;;;;;5087869;28;20179;-74
2023/12/28 06:42:14;;;;;;;1.20;0.83;;;11.60;85.20;;;;;;5087733;28;20193;-74
2023/12/28 06:44:40;;;;;;;1.23;1.00;;;11.60;87.60;;;;;;5087730;28;20288;-75
2023/12/28 06:47:06;;;;;;;2.40;0.90;;;11.60;89.20;;;;;;5087712;28;20564;-74
2023/12/28 06:49:31;;;;;;;1.60;0.90;;;11.60;90.30;;;;;;5087527;28;20192;-75
2023/12/28 06:51:57;;;;;;;2.03;1.20;;;11.70;91.00;;;;;;5071586;28;20193;-74
2023/12/28 06:54:23;;;;;;;2.37;0.90;;;11.50;91.50;;;;;;5088054;28;20565;-74
2023/12/28 06:56:51;;;;;;;1.50;0.93;;;11.60;91.90;;;;;;5087766;28;20209;-74
2023/12/28 06:59:16;;;;;;;4.23;1.07;;;11.60;92.50;;;;;;5089360;28;20437;-74
2023/12/28 07:01:44;;;;;;;1.30;0.97;;;11.60;93.30;;;;;;5089164;28;20428;-74
2023/12/28 07:04:09;;;;;;;1.87;0.67;;;11.60;93.90;;;;;;5089280;28;20898;-74
2023/12/28 07:06:35;;;;;;;2.17;0.90;;;11.60;94.50;;;;;;5088877;28;20470;-74
2023/12/28 07:09:00;;;;;;;3.77;1.10;;;11.60;94.50;;;;;;5087681;28;20271;-74
2023/12/28 07:11:26;;;;;;;1.93;0.93;;;11.60;95.30;;;;;;5089385;28;20189;-75
2023/12/28 07:13:53;;;;;;;2.30;0.87;;;11.50;95.40;;;;;;5087626;28;20247;-75
2023/12/28 07:16:18;;;;;;;3.70;1.63;;;11.60;95.90;;;;;;5088866;28;20447;-74
2023/12/28 07:18:44;;;;;;;2.60;1.50;;;11.60;96.30;;;;;;5089093;28;20422;-74
2023/12/28 07:21:09;;;;;;;3.47;1.97;;;11.60;96.30;;;;;;5087860;28;20206;-74
2023/12/28 07:23:35;;;;;;;1.30;1.20;;;11.60;96.60;;;;;;5087578;28;20271;-75
2023/12/28 07:26:01;;;;;;;2.23;0.90;;;11.60;97.10;;;;;;5088984;28;20257;-74
2023/12/28 07:28:27;;;;;;;1.30;0.80;;;11.50;97.40;;;;;;5087229;28;20465;-73
2023/12/28 07:30:54;;;;;;;3.20;1.30;;;11.60;97.90;;;;;;5087461;28;20422;-75
2023/12/28 07:33:20;;;;;;;3.83;1.43;;;11.60;97.60;;;;;;5087272;28;20582;-74
2023/12/28 07:35:45;;;;;;;3.00;1.03;;;11.60;98.00;;;;;;5088538;28;20493;-74
2023/12/28 07:38:11;;;;;;;1.10;1.00;;;11.60;98.30;;;;;;5088758;28;20482;-74
2023/12/28 07:40:37;;;;;;;1.50;0.90;;;11.60;99.10;;;;;;5087126;28;20380;-74
2023/12/28 07:43:03;;;;;;;3.07;0.90;;;11.70;98.50;;;;;;5088630;28;20182;-74
2023/12/28 07:45:29;;;;;;;5.23;1.47;;;11.60;98.00;;;;;;5088420;28;20198;-74
2023/12/28 07:47:54;;;;;;;2.30;1.23;;;11.70;97.70;;;;;;5087727;28;20592;-74
2023/12/28 07:50:20;;;;;;;2.30;0.90;;;11.70;97.00;;;;;;5070202;28;20213;-74
2023/12/28 07:52:50;;;;;;;2.63;0.80;;;11.70;96.30;;;;;;5088600;28;20806;-74
2023/12/28 07:55:15;;;;;;;4.50;1.77;;;11.70;96.30;;;;;;5088454;28;20421;-73
2023/12/28 07:57:41;;;;;;;1.67;1.10;;;11.80;96.10;;;;;;5088068;28;20429;-74
2023/12/28 08:00:07;;;;;;;1.97;1.03;;;11.80;95.80;;;;;;5086450;28;20190;-74
2023/12/28 08:02:33;;;;;;;2.20;1.20;;;11.80;96.20;;;;;;5087688;28;20439;-74
2023/12/28 08:04:59;;;;;;;2.20;1.23;;;11.80;96.00;;;;;;5086066;28;20942;-74
2023/12/28 08:07:25;;;;;;;1.47;0.90;;;11.70;95.60;;;;;;5087486;28;20467;-74
2023/12/28 08:09:50;;;;;;;4.63;1.87;;;11.80;95.80;;;;;;5087771;28;20681;-74
2023/12/28 08:12:17;;;;;;;8.53;1.43;;;11.70;95.50;;;;;;5087598;28;20261;-74
2023/12/28 08:14:43;;;;;;;1.90;1.17;;;11.70;95.30;;;;;;5087540;28;20186;-74
2023/12/28 08:17:08;;;;;;;1.37;1.10;;;11.70;94.40;;;;;;5087658;28;20436;-74
2023/12/28 08:19:35;;;;;;;2.37;1.23;;;11.70;95.00;;;;;;5069162;28;20442;-74
2023/12/28 08:22:00;;;;;;;1.80;1.13;;;11.60;95.30;;;;;;5069362;28;20188;-74
2023/12/28 08:24:26;;;;;;;2.17;1.50;;;11.70;94.30;;;;;;5052478;28;20438;-74
2023/12/28 08:26:52;;;;;;;2.70;0.80;;;11.70;94.60;;;;;;5087095;28;20219;-74
2023/12/28 08:29:18;;;;;;;1.50;1.23;;;11.70;94.70;;;;;;5087527;28;20185;-74
2023/12/28 08:31:44;;;;;;;1.60;1.50;;;11.70;94.20;;;;;;5086228;28;20419;-74
2023/12/28 08:34:09;;;;;;;4.70;1.40;;;11.70;94.80;;;;;;5086071;28;20185;-74
2023/12/28 08:36:35;;;;;;;3.17;1.00;;;11.70;94.40;;;;;;5087326;28;20464;-74
2023/12/28 08:39:01;;;;;;;1.50;1.20;;;11.70;94.40;;;;;;5087969;28;20291;-73
2023/12/28 08:41:26;;;;;;;3.40;1.30;;;11.80;93.70;;;;;;5086209;28;20184;-74
2023/12/28 08:43:56;;;;;;;1.27;1.17;;;11.70;94.20;;;;;;5087401;28;20272;-74
2023/12/28 08:46:22;;;;;;;2.50;1.10;;;11.80;94.10;;;;;;5085591;28;21002;-75
2023/12/28 08:48:48;;;;;;;4.33;1.10;;;11.80;93.40;;;;;;5087506;28;20483;-74
2023/12/28 08:51:14;;;;;;;3.97;1.23;;;11.80;94.10;;;;;;5069333;28;20509;-74
2023/12/28 08:53:40;;;;;;;1.80;1.10;;;11.70;94.20;;;;;;5086344;28;20187;-74
2023/12/28 08:56:23;;;;;;;4.67;0.90;;;11.70;92.50;;;;;;5086218;28;20470;-74
2023/12/28 08:58:54;;;;;;;3.33;1.40;;;11.70;93.10;;;;;;5088125;28;20438;-74
2023/12/28 09:01:23;;;;;;;5.10;1.40;;;11.70;93.60;;;;;;5091826;28;20421;-75
2023/12/28 09:03:50;;;;;;;2.00;1.23;;;11.70;92.50;;;;;;5090621;28;20521;-74
2023/12/28 09:06:16;;;;;;;2.30;1.30;;;11.70;92.80;;;;;;5091696;28;20462;-75
2023/12/28 09:08:43;;;;;;;1.30;1.20;;;11.70;92.80;;;;;;5091940;28;20423;-74
2023/12/28 09:11:11;;;;;;;2.40;1.07;;;11.70;93.20;;;;;;5091958;28;20422;-74
2023/12/28 09:13:38;;;;;;;1.97;1.20;;;11.70;92.30;;;;;;5090748;28;20792;-74
2023/12/28 09:16:05;;;;;;;1.27;1.10;;;11.70;92.10;;;;;;5092097;28;20484;-74
2023/12/28 09:18:30;;;;;;;3.13;1.17;;;11.70;91.50;;;;;;5090841;28;20429;-74
2023/12/28 09:20:56;;;;;;;2.60;1.03;;;11.70;91.60;;;;;;5092013;28;20430;-74
2023/12/28 09:23:21;;;;;;;1.53;1.30;;;11.70;91.90;;;;;;5090584;28;20193;-74
2023/12/28 09:25:47;;;;;;;5.13;1.40;;;11.70;91.70;;;;;;5091752;28;20668;-74
2023/12/28 09:28:13;;;;;;;2.00;1.17;;;11.70;92.40;;;;;;5091843;28;20173;-74
2023/12/28 09:30:39;;;;;;;2.17;1.03;;;11.80;92.10;;;;;;5091645;28;20990;-73
2023/12/28 09:33:04;;;;;;;1.33;1.23;;;11.80;91.60;;;;;;5089827;28;20182;-73
2023/12/28 09:35:30;;;;;;;1.40;0.90;;;11.80;90.50;;;;;;5090879;28;20221;-74
2023/12/28 09:37:56;;;;;;;1.97;1.30;;;11.90;90.90;;;;;;5091490;28;20536;-73
2023/12/28 09:40:22;;;;;;;2.90;1.00;;;11.90;91.70;;;;;;5091022;28;20430;-73
2023/12/28 09:43:07;;;;;;;1.20;1.10;;;11.90;91.80;;;;;;5089751;28;20187;-73
2023/12/28 09:45:33;;;;;;;3.47;1.47;;;11.90;91.00;;;;;;5091160;28;20204;-73
2023/12/28 09:47:59;;;;;;;1.20;1.10;;;11.90;91.10;;;;;;5072487;28;20470;-74
2023/12/28 09:50:26;;;;;;;1.50;0.90;;;11.90;91.50;;;;;;5091551;28;20199;-73
2023/12/28 09:52:53;;;;;;;1.40;1.10;;;11.90;90.70;;;;;;5091188;28;20929;-74
2023/12/28 09:55:19;;;;;;;3.33;1.80;;;11.90;91.10;;;;;;5090727;28;20534;-74
2023/12/28 09:57:45;;;;;;;3.53;1.33;;;12.00;91.40;;;;;;5088810;28;20514;-73
2023/12/28 10:00:12;;;;;;;2.90;1.40;;;11.90;90.30;;;;;;5090121;28;20203;-74
2023/12/28 10:02:41;;;;;;;1.47;1.20;;;12.00;91.10;;;;;;5089149;28;20836;-73
2023/12/28 10:05:07;;;;;;;2.50;1.40;;;12.00;90.20;;;;;;5090398;28;20441;-74
2023/12/28 10:07:32;;;;;;;3.40;1.10;;;11.90;90.20;;;;;;5088583;28;20469;-73
2023/12/28 10:09:58;;;;;;;2.27;1.23;;;11.90;90.50;;;;;;5087979;28;20427;-73
2023/12/28 10:12:27;;;;;;;3.20;1.30;;;11.90;90.60;;;;;;5088722;28;20263;-73
2023/12/28 10:14:53;;;;;;;2.50;1.23;;;11.80;89.60;;;;;;5089070;28;20183;-73
2023/12/28 10:17:18;;;;;;;3.67;1.70;;;11.80;88.90;;;;;;5089072;28;20518;-73
2023/12/28 10:19:47;;;;;;;4.40;1.53;;;11.80;90.50;;;;;;5088352;28;20191;-74
2023/12/28 10:22:13;;;;;;;1.73;1.27;;;11.80;89.60;;;;;;5088245;28;20314;-73
2023/12/28 10:24:43;;;;;;;2.97;1.77;;;11.80;90.10;;;;;;5090027;28;20432;-73
2023/12/28 10:27:09;;;;;;;2.50;1.40;;;11.80;91.30;;;;;;5089308;28;20470;-73
2023/12/28 10:29:34;;;;;;;3.00;1.57;;;11.90;90.90;;;;;;5088046;28;20422;-75
2023/12/28 10:32:00;;;;;;;3.23;1.40;;;11.90;91.30;;;;;;5071525;28;20268;-73
2023/12/28 10:34:26;;;;;;;2.77;1.37;;;11.90;91.90;;;;;;5089413;28;20194;-73
2023/12/28 10:36:52;;;;;;;2.17;1.30;;;11.90;92.20;;;;;;5071338;28;20437;-73
2023/12/28 10:39:21;;;;;;;1.33;1.17;;;11.90;92.50;;;;;;5087821;28;20185;-73
2023/12/28 10:41:49;;;;;;;3.67;1.50;;;11.90;92.10;;;;;;5088069;28;20419;-73
2023/12/28 10:44:20;;;;;;;1.60;1.10;;;12.00;92.30;;;;;;5089501;28;20455;-73
2023/12/28 10:46:51;;;;;;;2.20;1.20;;;11.90;93.00;;;;;;5089570;28;20468;-73
2023/12/28 10:49:17;;;;;;;2.83;1.20;;;12.00;94.50;;;;;;5089521;28;20412;-73
2023/12/28 10:51:43;;;;;;;2.73;1.20;;;12.00;95.50;;;;;;5089130;28;20419;-75
2023/12/28 10:54:15;;;;;;;1.87;1.17;;;12.00;98.00;;;;;;5088992;28;20409;-73
2023/12/28 10:56:56;;;;;;;1.40;1.30;;;12.00;99.90;;;;;;5087458;28;20478;-73
2023/12/28 10:59:21;;;;;;;1.50;1.00;;;12.00;99.90;;;;;;5087623;28;20421;-73
2023/12/28 11:01:49;;;;;;;1.77;0.93;;;11.90;99.90;;;;;;5089258;28;20944;-73
2023/12/28 11:04:43;;;;;;;2.57;1.10;;;12.00;99.90;;;;;;5089260;28;20187;-74
2023/12/28 11:07:12;;;;;;;2.67;1.63;;;12.10;99.90;;;;;;5085092;28;20478;-73
2023/12/28 11:09:41;;;;;;;1.30;0.80;;;12.10;99.90;;;;;;5089604;28;20539;-73
2023/12/28 11:12:08;;;;;;;1.70;1.13;;;12.10;99.90;;;;;;5088001;28;20422;-74
2023/12/28 11:14:35;;;;;;;2.50;1.40;;;12.10;99.90;;;;;;5087878;28;20476;-73
2023/12/28 11:17:01;;;;;;;1.93;1.47;;;12.10;99.90;;;;;;5088887;28;20822;-73
2023/12/28 11:19:29;;;;;;;2.27;1.37;;;12.20;99.90;;;;;;5089103;28;20427;-73
2023/12/28 11:21:56;;;;;;;2.70;1.43;;;12.30;99.90;;;;;;5070804;28;20531;-73
2023/12/28 11:24:23;;;;;;;1.67;1.43;;;12.30;99.90;;;;;;5087577;28;20935;-74
2023/12/28 11:26:55;;;;;;;2.40;1.53;;;12.40;99.90;;;;;;5089125;28;20539;-74
2023/12/28 11:29:21;;;;;;;1.10;0.90;;;12.60;99.90;;;;;;5071102;28;20424;-74
2023/12/28 11:31:54;;;;;;;2.60;1.23;;;12.80;99.90;;;;;;5089023;28;20411;-74
2023/12/28 11:34:28;;;;;;;2.67;1.30;;;12.90;99.90;;;;;;5088969;28;20411;-74
2023/12/28 11:37:03;;;;;;;2.73;1.30;;;13.20;99.90;;;;;;5089089;28;20452;-74
2023/12/28 11:39:37;;;;;;;1.63;1.30;;;13.70;99.90;;;;;;5087541;28;20425;-74
2023/12/28 11:42:04;;;;;;;2.00;1.30;;;13.90;99.90;;;;;;5087285;28;20438;-74
2023/12/28 11:44:41;;;;;;;3.17;1.50;;;14.00;99.90;;;;;;5088358;28;20476;-74
2023/12/28 11:47:21;;;;;;;2.13;1.70;;;13.80;99.90;;;;;;5088410;28;20809;-74
2023/12/28 11:49:48;;;;;;;1.47;1.10;;;13.70;99.90;;;;;;5087521;28;20422;-74
2023/12/28 11:52:31;;;;;;;2.70;1.20;;;13.70;99.90;;;;;;5087400;28;20423;-74
2023/12/28 11:54:59;;;;;;;1.90;0.83;;;13.60;99.90;;;;;;5088504;28;20519;-74
2023/12/28 11:57:25;;;;;;;4.23;1.40;;;13.70;99.90;;;;;;5088408;28;20421;-73
2023/12/28 11:59:58;;;;;;;3.07;1.33;;;13.80;99.90;;;;;;5086830;28;20432;-74
2023/12/28 12:02:25;;;;;;;1.30;1.00;;;13.70;99.90;;;;;;5088566;28;20513;-74
2023/12/28 12:04:50;;;;;;;1.40;1.00;;;13.60;99.90;;;;;;5086757;28;20430;-74
2023/12/28 12:07:16;;;;;;;2.77;1.57;;;13.50;99.90;;;;;;5086368;28;20478;-74
2023/12/28 12:09:42;;;;;;;1.23;0.80;;;13.40;99.90;;;;;;5087983;28;20825;-74
2023/12/28 12:12:08;;;;;;;1.87;1.00;;;13.30;99.90;;;;;;5088420;28;20764;-74
2023/12/28 12:14:34;;;;;;;2.13;1.10;;;13.20;99.90;;;;;;5088347;28;20416;-74
2023/12/28 12:17:00;;;;;;;1.23;0.90;;;13.00;99.90;;;;;;5086851;28;20209;-74
2023/12/28 12:19:27;;;;;;;1.57;0.93;;;13.00;99.90;;;;;;5088303;28;20418;-74
2023/12/28 12:21:56;;;;;;;11.20;1.20;;;12.90;99.90;;;;;;5088120;28;20412;-74
2023/12/28 12:24:22;;;;;;;3.40;1.10;;;12.90;99.90;;;;;;5070245;28;20506;-74
2023/12/28 12:26:50;;;;;;;1.60;1.20;;;12.80;99.90;;;;;;5086721;28;21068;-74
2023/12/28 12:29:16;;;;;;;6.00;1.57;;;12.80;99.90;;;;;;5086765;28;21278;-74
2023/12/28 12:31:42;;;;;;;2.33;1.40;;;12.80;99.90;;;;;;5053182;28;20431;-74
2023/12/28 12:34:09;;;;;;;1.40;1.13;;;12.80;99.90;;;;;;5086095;28;20407;-74
2023/12/28 12:36:35;;;;;;;3.13;1.30;;;12.70;99.90;;;;;;5087536;28;20451;-73
2023/12/28 12:39:03;;;;;;;1.67;1.47;;;12.70;99.90;;;;;;5087561;28;20483;-73
2023/12/28 12:41:28;;;;;;;1.30;0.97;;;12.60;99.90;;;;;;5086497;28;20438;-72
2023/12/28 12:43:56;;;;;;;1.47;1.30;;;12.50;99.90;;;;;;5088144;28;20876;-73